createdAt,value
2018-01-02T00:00:15.180Z,928.56
2018-01-02T00:00:43.602Z,928.55
2018-01-02T00:01:12.216Z,928.6
2018-01-02T00:01:40.650Z,928.6
2018-01-02T00:02:09.314Z,928.59
2018-01-02T00:02:37.969Z,928.63
2018-01-02T00:03:06.636Z,928.61
2018-01-02T00:03:35.272Z,928.63
2018-01-02T00:04:03.813Z,928.65
2018-01-02T00:04:32.299Z,928.69
2018-01-02T00:05:00.940Z,928.66
2018-01-02T00:05:29.505Z,928.7
2018-01-02T00:05:57.938Z,928.7
2018-01-02T00:06:26.456Z,928.71
2018-01-02T00:06:55.074Z,928.76
2018-01-02T00:07:23.468Z,928.76
2018-01-02T00:07:52.002Z,928.75
2018-01-02T00:08:20.465Z,928.8
2018-01-02T00:08:48.978Z,928.79
2018-01-02T00:09:17.636Z,928.77
2018-01-02T00:09:46.188Z,928.78
2018-01-02T00:10:14.594Z,928.83
2018-01-02T00:10:43.123Z,928.82
2018-01-02T00:11:11.596Z,928.81
2018-01-02T00:11:40.201Z,928.84
2018-01-02T00:12:08.801Z,928.85
2018-01-02T00:12:37.427Z,928.88
2018-01-02T00:13:06.074Z,928.9
2018-01-02T00:13:34.574Z,928.93
2018-01-02T00:14:03.078Z,928.89
2018-01-02T00:14:31.471Z,928.93
2018-01-02T00:15:00.022Z,928.93
2018-01-02T00:15:28.601Z,928.96
2018-01-02T00:15:57.055Z,928.94
2018-01-02T00:16:25.613Z,928.98
2018-01-02T00:16:54.100Z,928.93
2018-01-02T00:17:22.724Z,928.93
2018-01-02T00:17:51.348Z,928.93
2018-01-02T00:18:19.837Z,928.95
2018-01-02T00:18:48.218Z,928.94
2018-01-02T00:19:16.537Z,928.93
2018-01-02T00:19:44.918Z,928.94
2018-01-02T00:20:13.329Z,928.92
2018-01-02T00:20:41.867Z,928.97
2018-01-02T00:21:10.381Z,928.93
2018-01-02T00:21:38.886Z,928.93
2018-01-02T00:22:07.453Z,928.91
2018-01-02T00:22:35.972Z,928.91
2018-01-02T00:23:04.560Z,928.95
2018-01-02T00:23:33.176Z,928.96
2018-01-02T00:24:01.658Z,928.95
2018-01-02T00:24:30.129Z,928.94
2018-01-02T00:24:58.680Z,928.97
2018-01-02T00:25:27.301Z,928.97
2018-01-02T00:25:55.821Z,929
2018-01-02T00:26:24.977Z,928.99
2018-01-02T00:26:53.950Z,928.96
2018-01-02T00:27:22.275Z,928.95
2018-01-02T00:27:50.651Z,928.98
2018-01-02T00:28:19.199Z,928.96
2018-01-02T00:28:47.782Z,928.97
2018-01-02T00:29:16.373Z,928.95
2018-01-02T00:29:44.869Z,928.96
2018-01-02T00:30:13.484Z,928.94
2018-01-02T00:30:42.117Z,928.97
2018-01-02T00:31:10.740Z,928.98
2018-01-02T00:31:39.283Z,928.98
2018-01-02T00:32:07.872Z,928.96
2018-01-02T00:32:36.377Z,928.97
2018-01-02T00:33:05.009Z,928.98
2018-01-02T00:33:33.541Z,929.02
2018-01-02T00:34:02.156Z,929.05
2018-01-02T00:34:30.676Z,929.04
2018-01-02T00:34:59.179Z,929.09
2018-01-02T00:35:27.708Z,929.08
2018-01-02T00:35:56.213Z,929.11
2018-01-02T00:36:24.855Z,929.14
2018-01-02T00:36:53.403Z,929.1
2018-01-02T00:37:21.978Z,929.14
2018-01-02T00:37:50.456Z,929.14
2018-01-02T00:38:19.031Z,929.13
2018-01-02T00:38:47.533Z,929.17
2018-01-02T00:39:16.121Z,929.15
2018-01-02T00:39:44.619Z,929.14
2018-01-02T00:40:13.232Z,929.14
2018-01-02T00:40:41.746Z,929.17
2018-01-02T00:41:10.340Z,929.14
2018-01-02T00:41:38.849Z,929.19
2018-01-02T00:42:07.614Z,929.16
2018-01-02T00:42:36.112Z,929.2
2018-01-02T00:43:04.690Z,929.15
2018-01-02T00:43:33.200Z,929.22
2018-01-02T00:44:01.700Z,929.2
2018-01-02T00:44:30.309Z,929.23
2018-01-02T00:44:58.808Z,929.23
2018-01-02T00:45:27.400Z,929.24
2018-01-02T00:45:55.888Z,929.22
2018-01-02T00:46:24.382Z,929.28
2018-01-02T00:46:52.861Z,929.25
2018-01-02T00:47:21.686Z,929.33
2018-01-02T00:47:50.136Z,929.32
2018-01-02T00:48:18.743Z,929.33
2018-01-02T00:48:47.100Z,929.39
2018-01-02T00:49:15.623Z,929.37
2018-01-02T00:49:44.166Z,929.36
2018-01-02T00:50:12.646Z,929.38
2018-01-02T00:50:41.188Z,929.38
2018-01-02T00:51:09.815Z,929.37
2018-01-02T00:51:38.403Z,929.37
2018-01-02T00:52:06.990Z,929.38
2018-01-02T00:52:35.496Z,929.39
2018-01-02T00:53:03.940Z,929.36
2018-01-02T00:53:32.575Z,929.31
2018-01-02T00:54:01.122Z,929.35
2018-01-02T00:54:29.668Z,929.32
2018-01-02T00:54:58.224Z,929.36
2018-01-02T00:55:26.811Z,929.35
2018-01-02T00:55:55.250Z,929.35
2018-01-02T00:56:23.453Z,929.4
2018-01-02T00:56:51.770Z,929.36
2018-01-02T00:57:20.496Z,929.34
2018-01-02T00:57:49.005Z,929.38
2018-01-02T00:58:17.524Z,929.39
2018-01-02T00:58:45.936Z,929.4
2018-01-02T00:59:14.336Z,929.37
2018-01-02T00:59:42.926Z,929.31
2018-01-02T01:00:11.450Z,929.37
2018-01-02T01:00:39.864Z,929.36
2018-01-02T01:01:08.424Z,929.35
2018-01-02T01:01:37.031Z,929.37
2018-01-02T01:02:05.538Z,929.33
2018-01-02T01:02:34.079Z,929.36
2018-01-02T01:03:02.572Z,929.33
2018-01-02T01:03:31.176Z,929.33
2018-01-02T01:03:59.806Z,929.34
2018-01-02T01:04:28.370Z,929.34
2018-01-02T01:04:56.873Z,929.34
2018-01-02T01:05:25.495Z,929.33
2018-01-02T01:05:54.015Z,929.32
2018-01-02T01:06:22.522Z,929.35
2018-01-02T01:06:51.034Z,929.34
2018-01-02T01:07:19.511Z,929.35
2018-01-02T01:07:48.096Z,929.34
2018-01-02T01:08:16.636Z,929.31
2018-01-02T01:08:45.152Z,929.32
2018-01-02T01:09:13.666Z,929.33
2018-01-02T01:09:42.271Z,929.34
2018-01-02T01:10:10.801Z,929.37
2018-01-02T01:10:39.146Z,929.37
2018-01-02T01:11:07.586Z,929.36
2018-01-02T01:11:36.127Z,929.43
2018-01-02T01:12:05.448Z,929.4
2018-01-02T01:12:34.144Z,929.44
2018-01-02T01:13:02.789Z,929.41
2018-01-02T01:13:31.314Z,929.43
2018-01-02T01:13:59.837Z,929.45
2018-01-02T01:14:28.259Z,929.39
2018-01-02T01:14:56.767Z,929.43
2018-01-02T01:15:25.214Z,929.37
2018-01-02T01:15:53.720Z,929.44
2018-01-02T01:16:22.023Z,929.42
2018-01-02T01:16:50.596Z,929.44
2018-01-02T01:17:19.099Z,929.41
2018-01-02T01:17:47.569Z,929.4
2018-01-02T01:18:15.986Z,929.41
2018-01-02T01:18:44.608Z,929.43
2018-01-02T01:19:12.989Z,929.43
2018-01-02T01:19:41.422Z,929.4
2018-01-02T01:20:09.832Z,929.42
2018-01-02T01:20:38.398Z,929.41
2018-01-02T01:21:06.971Z,929.37
2018-01-02T01:21:35.508Z,929.39
2018-01-02T01:22:04.136Z,929.39
2018-01-02T01:22:32.551Z,929.37
2018-01-02T01:23:01.140Z,929.35
2018-01-02T01:23:29.579Z,929.36
2018-01-02T01:23:58.199Z,929.38
2018-01-02T01:24:26.742Z,929.36
2018-01-02T01:24:55.329Z,929.33
2018-01-02T01:25:23.977Z,929.32
2018-01-02T01:25:52.582Z,929.37
2018-01-02T01:26:21.193Z,929.36
2018-01-02T01:26:49.805Z,929.36
2018-01-02T01:27:18.346Z,929.36
2018-01-02T01:27:47.126Z,929.36
2018-01-02T01:28:15.729Z,929.37
2018-01-02T01:28:44.296Z,929.39
2018-01-02T01:29:12.685Z,929.4
2018-01-02T01:29:41.277Z,929.39
2018-01-02T01:30:09.929Z,929.36
2018-01-02T01:30:38.488Z,929.36
2018-01-02T01:31:06.990Z,929.39
2018-01-02T01:31:35.332Z,929.42
2018-01-02T01:32:03.905Z,929.4
2018-01-02T01:32:32.422Z,929.43
2018-01-02T01:33:00.830Z,929.42
2018-01-02T01:33:29.350Z,929.4
2018-01-02T01:33:57.915Z,929.42
2018-01-02T01:34:26.544Z,929.4
2018-01-02T01:34:55.064Z,929.4
2018-01-02T01:35:23.695Z,929.41
2018-01-02T01:35:52.139Z,929.41
2018-01-02T01:36:20.716Z,929.42
2018-01-02T01:36:49.329Z,929.44
2018-01-02T01:37:17.833Z,929.41
2018-01-02T01:37:46.265Z,929.41
2018-01-02T01:38:14.686Z,929.45
2018-01-02T01:38:43.317Z,929.51
2018-01-02T01:39:11.937Z,929.47
2018-01-02T01:39:40.411Z,929.52
2018-01-02T01:40:08.895Z,929.48
2018-01-02T01:40:37.437Z,929.48
2018-01-02T01:41:06.345Z,929.53
2018-01-02T01:41:34.589Z,929.52
2018-01-02T01:42:03.111Z,929.56
2018-01-02T01:42:31.838Z,929.56
2018-01-02T01:43:00.447Z,929.52
2018-01-02T01:43:28.968Z,929.56
2018-01-02T01:43:57.665Z,929.55
2018-01-02T01:44:26.194Z,929.53
2018-01-02T01:44:54.742Z,929.58
2018-01-02T01:45:23.326Z,929.56
2018-01-02T01:45:51.853Z,929.54
2018-01-02T01:46:20.457Z,929.55
2018-01-02T01:46:48.877Z,929.57
2018-01-02T01:47:17.425Z,929.55
2018-01-02T01:47:46.003Z,929.56
2018-01-02T01:48:14.519Z,929.62
2018-01-02T01:48:42.903Z,929.58
2018-01-02T01:49:11.400Z,929.59
2018-01-02T01:49:39.807Z,929.56
2018-01-02T01:50:08.341Z,929.61
2018-01-02T01:50:36.885Z,929.61
2018-01-02T01:51:05.489Z,929.58
2018-01-02T01:51:33.866Z,929.63
2018-01-02T01:52:02.501Z,929.6
2018-01-02T01:52:31.095Z,929.62
2018-01-02T01:52:59.703Z,929.61
2018-01-02T01:53:28.288Z,929.62
2018-01-02T01:53:56.834Z,929.61
2018-01-02T01:54:25.218Z,929.59
2018-01-02T01:54:53.650Z,929.59
2018-01-02T01:55:22.183Z,929.59
2018-01-02T01:55:50.669Z,929.62
2018-01-02T01:56:19.275Z,929.59
2018-01-02T01:56:47.788Z,929.6
2018-01-02T01:57:16.261Z,929.58
2018-01-02T01:57:45.019Z,929.59
2018-01-02T01:58:13.614Z,929.62
2018-01-02T01:58:42.101Z,929.64
2018-01-02T01:59:10.575Z,929.62
2018-01-02T01:59:38.948Z,929.63
2018-01-02T02:00:07.341Z,929.64
2018-01-02T02:00:35.864Z,929.66
2018-01-02T02:01:04.310Z,929.69
2018-01-02T02:01:32.919Z,929.67
2018-01-02T02:02:01.445Z,929.7
2018-01-02T02:02:30.048Z,929.69
2018-01-02T02:02:58.551Z,929.68
2018-01-02T02:03:27.166Z,929.67
2018-01-02T02:03:55.772Z,929.65
2018-01-02T02:04:24.364Z,929.68
2018-01-02T02:04:52.740Z,929.65
2018-01-02T02:05:21.256Z,929.7
2018-01-02T02:05:49.856Z,929.67
2018-01-02T02:06:18.450Z,929.67
2018-01-02T02:06:46.864Z,929.65
2018-01-02T02:07:15.382Z,929.66
2018-01-02T02:07:44.008Z,929.64
2018-01-02T02:08:12.785Z,929.62
2018-01-02T02:08:41.375Z,929.64
2018-01-02T02:09:09.843Z,929.64
2018-01-02T02:09:38.502Z,929.66
2018-01-02T02:10:07.031Z,929.64
2018-01-02T02:10:35.584Z,929.64
2018-01-02T02:11:03.871Z,929.63
2018-01-02T02:11:32.259Z,929.63
2018-01-02T02:12:00.846Z,929.6
2018-01-02T02:12:29.389Z,929.63
2018-01-02T02:12:58.002Z,929.63
2018-01-02T02:13:26.528Z,929.63
2018-01-02T02:13:55.129Z,929.63
2018-01-02T02:14:23.631Z,929.61
2018-01-02T02:14:52.231Z,929.62
2018-01-02T02:15:20.559Z,929.63
2018-01-02T02:15:49.186Z,929.64
2018-01-02T02:16:17.649Z,929.66
2018-01-02T02:16:46.221Z,929.66
2018-01-02T02:17:14.734Z,929.65
2018-01-02T02:17:43.323Z,929.65
2018-01-02T02:18:11.639Z,929.61
2018-01-02T02:18:40.252Z,929.64
2018-01-02T02:19:08.672Z,929.63
2018-01-02T02:19:37.135Z,929.6
2018-01-02T02:20:05.732Z,929.6
2018-01-02T02:20:34.199Z,929.56
2018-01-02T02:21:02.689Z,929.61
2018-01-02T02:21:31.303Z,929.61
2018-01-02T02:21:59.782Z,929.56
2018-01-02T02:22:28.321Z,929.52
2018-01-02T02:22:56.722Z,929.56
2018-01-02T02:23:25.217Z,929.57
2018-01-02T02:23:53.842Z,929.57
2018-01-02T02:24:22.150Z,929.52
2018-01-02T02:24:50.623Z,929.52
2018-01-02T02:25:19.147Z,929.55
2018-01-02T02:25:47.464Z,929.52
2018-01-02T02:26:15.896Z,929.5
2018-01-02T02:26:44.377Z,929.49
2018-01-02T02:27:12.966Z,929.49
2018-01-02T02:27:41.490Z,929.47
2018-01-02T02:28:10.251Z,929.51
2018-01-02T02:28:38.818Z,929.51
2018-01-02T02:29:07.298Z,929.46
2018-01-02T02:29:35.792Z,929.51
2018-01-02T02:30:04.342Z,929.5
2018-01-02T02:30:32.803Z,929.52
2018-01-02T02:31:01.451Z,929.53
2018-01-02T02:31:29.958Z,929.55
2018-01-02T02:31:58.439Z,929.52
2018-01-02T02:32:26.834Z,929.51
2018-01-02T02:32:55.317Z,929.53
2018-01-02T02:33:23.822Z,929.49
2018-01-02T02:33:52.329Z,929.52
2018-01-02T02:34:21.211Z,929.5
2018-01-02T02:34:49.854Z,929.47
2018-01-02T02:35:18.455Z,929.47
2018-01-02T02:35:47.062Z,929.47
2018-01-02T02:36:15.670Z,929.46
2018-01-02T02:36:44.218Z,929.42
2018-01-02T02:37:12.821Z,929.41
2018-01-02T02:37:41.337Z,929.44
2018-01-02T02:38:09.885Z,929.45
2018-01-02T02:38:38.493Z,929.46
2018-01-02T02:39:06.894Z,929.43
2018-01-02T02:39:35.431Z,929.42
2018-01-02T02:40:04.001Z,929.49
2018-01-02T02:40:32.584Z,929.46
2018-01-02T02:41:01.204Z,929.48
2018-01-02T02:41:29.603Z,929.5
2018-01-02T02:41:58.061Z,929.5
2018-01-02T02:42:26.557Z,929.49
2018-01-02T02:42:55.147Z,929.47
2018-01-02T02:43:23.853Z,929.45
2018-01-02T02:43:52.304Z,929.48
2018-01-02T02:44:20.789Z,929.43
2018-01-02T02:44:49.388Z,929.46
2018-01-02T02:45:17.865Z,929.45
2018-01-02T02:45:46.369Z,929.43
2018-01-02T02:46:15.016Z,929.44
2018-01-02T02:46:43.637Z,929.42
2018-01-02T02:47:12.121Z,929.4
2018-01-02T02:47:40.601Z,929.38
2018-01-02T02:48:09.037Z,929.35
2018-01-02T02:48:37.610Z,929.38
2018-01-02T02:49:06.213Z,929.38
2018-01-02T02:49:34.817Z,929.37
2018-01-02T02:50:03.484Z,929.39
2018-01-02T02:50:32.046Z,929.38
2018-01-02T02:51:00.631Z,929.39
2018-01-02T02:51:29.202Z,929.38
2018-01-02T02:51:57.734Z,929.39
2018-01-02T02:52:26.304Z,929.4
2018-01-02T02:52:54.942Z,929.41
2018-01-02T02:53:23.423Z,929.41
2018-01-02T02:53:51.830Z,929.39
2018-01-02T02:54:20.207Z,929.4
2018-01-02T02:54:48.755Z,929.39
2018-01-02T02:55:17.382Z,929.34
2018-01-02T02:55:45.868Z,929.37
2018-01-02T02:56:14.364Z,929.33
2018-01-02T02:56:42.997Z,929.33
2018-01-02T02:57:11.476Z,929.3
2018-01-02T02:57:39.987Z,929.32
2018-01-02T02:58:08.963Z,929.33
2018-01-02T02:58:37.592Z,929.27
2018-01-02T02:59:06.100Z,929.27
2018-01-02T02:59:34.625Z,929.26
2018-01-02T03:00:03.234Z,929.27
2018-01-02T03:00:31.849Z,929.25
2018-01-02T03:01:00.341Z,929.24
2018-01-02T03:01:28.773Z,929.26
2018-01-02T03:01:57.352Z,929.27
2018-01-02T03:02:25.862Z,929.23
2018-01-02T03:02:54.481Z,929.24
2018-01-02T03:03:22.894Z,929.21
2018-01-02T03:03:51.422Z,929.21
2018-01-02T03:04:19.981Z,929.22
2018-01-02T03:04:48.454Z,929.21
2018-01-02T03:05:17.076Z,929.17
2018-01-02T03:05:45.587Z,929.14
2018-01-02T03:06:14.249Z,929.12
2018-01-02T03:06:42.850Z,929.14
2018-01-02T03:07:11.252Z,929.08
2018-01-02T03:07:39.733Z,929.05
2018-01-02T03:08:08.342Z,929.07
2018-01-02T03:08:36.835Z,929.05
2018-01-02T03:09:05.323Z,929.01
2018-01-02T03:09:33.922Z,929.06
2018-01-02T03:10:02.511Z,929.05
2018-01-02T03:10:31.076Z,929.06
2018-01-02T03:10:59.658Z,929.02
2018-01-02T03:11:28.211Z,929.07
2018-01-02T03:11:56.731Z,929.04
2018-01-02T03:12:25.085Z,929.05
2018-01-02T03:12:53.574Z,929.07
2018-01-02T03:13:22.044Z,929.05
2018-01-02T03:13:50.642Z,929.06
2018-01-02T03:14:19.236Z,929.03
2018-01-02T03:14:47.741Z,929
2018-01-02T03:15:16.214Z,928.99
2018-01-02T03:15:44.690Z,929
2018-01-02T03:16:13.290Z,928.96
2018-01-02T03:16:41.800Z,928.99
2018-01-02T03:17:10.244Z,928.98
2018-01-02T03:17:38.860Z,928.95
2018-01-02T03:18:07.410Z,928.92
2018-01-02T03:18:35.792Z,928.93
2018-01-02T03:19:04.434Z,928.91
2018-01-02T03:19:32.959Z,928.94
2018-01-02T03:20:01.604Z,928.94
2018-01-02T03:20:30.086Z,928.92
2018-01-02T03:20:58.588Z,928.9
2018-01-02T03:21:27.207Z,928.96
2018-01-02T03:21:55.519Z,928.92
2018-01-02T03:22:24.151Z,928.92
2018-01-02T03:22:52.770Z,928.88
2018-01-02T03:23:21.345Z,928.9
2018-01-02T03:23:49.817Z,928.85
2018-01-02T03:24:18.201Z,928.84
2018-01-02T03:24:46.739Z,928.83
2018-01-02T03:25:15.408Z,928.81
2018-01-02T03:25:44.072Z,928.89
2018-01-02T03:26:12.480Z,928.82
2018-01-02T03:26:41.051Z,928.84
2018-01-02T03:27:09.574Z,928.82
2018-01-02T03:27:38.123Z,928.84
2018-01-02T03:28:06.523Z,928.85
2018-01-02T03:28:35.192Z,928.85
2018-01-02T03:29:03.775Z,928.82
2018-01-02T03:29:32.327Z,928.79
2018-01-02T03:30:00.967Z,928.8
2018-01-02T03:30:29.356Z,928.81
2018-01-02T03:30:57.897Z,928.83
2018-01-02T03:31:26.382Z,928.78
2018-01-02T03:31:54.894Z,928.76
2018-01-02T03:32:23.378Z,928.77
2018-01-02T03:32:51.889Z,928.74
2018-01-02T03:33:20.315Z,928.74
2018-01-02T03:33:48.835Z,928.78
2018-01-02T03:34:17.466Z,928.76
2018-01-02T03:34:45.966Z,928.74
2018-01-02T03:35:14.249Z,928.73
2018-01-02T03:35:42.833Z,928.71
2018-01-02T03:36:11.233Z,928.75
2018-01-02T03:36:39.685Z,928.7
2018-01-02T03:37:08.324Z,928.7
2018-01-02T03:37:36.949Z,928.7
2018-01-02T03:38:05.479Z,928.7
2018-01-02T03:38:34.127Z,928.7
2018-01-02T03:39:02.701Z,928.69
2018-01-02T03:39:31.296Z,928.67
2018-01-02T03:39:59.578Z,928.7
2018-01-02T03:40:28.178Z,928.71
2018-01-02T03:40:56.717Z,928.7
2018-01-02T03:41:25.387Z,928.69
2018-01-02T03:41:53.891Z,928.67
2018-01-02T03:42:22.392Z,928.66
2018-01-02T03:42:50.881Z,928.64
2018-01-02T03:43:19.388Z,928.65
2018-01-02T03:43:48.014Z,928.62
2018-01-02T03:44:16.541Z,928.62
2018-01-02T03:44:45.059Z,928.58
2018-01-02T03:45:13.630Z,928.6
2018-01-02T03:45:42.052Z,928.55
2018-01-02T03:46:10.543Z,928.57
2018-01-02T03:46:39.018Z,928.55
2018-01-02T03:47:07.493Z,928.52
2018-01-02T03:47:36.115Z,928.53
2018-01-02T03:48:04.538Z,928.53
2018-01-02T03:48:33.131Z,928.49
2018-01-02T03:49:01.717Z,928.5
2018-01-02T03:49:30.254Z,928.52
2018-01-02T03:49:58.613Z,928.52
2018-01-02T03:50:27.230Z,928.53
2018-01-02T03:50:55.842Z,928.52
2018-01-02T03:51:24.354Z,928.49
2018-01-02T03:51:52.841Z,928.51
2018-01-02T03:52:21.223Z,928.51
2018-01-02T03:52:49.720Z,928.52
2018-01-02T03:53:18.050Z,928.53
2018-01-02T03:53:46.669Z,928.51
2018-01-02T03:54:15.286Z,928.53
2018-01-02T03:54:43.947Z,928.51
2018-01-02T03:55:12.470Z,928.49
2018-01-02T03:55:40.961Z,928.5
2018-01-02T03:56:09.467Z,928.48
2018-01-02T03:56:38.839Z,928.45
2018-01-02T03:57:07.323Z,928.45
2018-01-02T03:57:35.833Z,928.41
2018-01-02T03:58:04.225Z,928.43
2018-01-02T03:58:32.836Z,928.45
2018-01-02T03:59:01.637Z,928.48
2018-01-02T03:59:30.154Z,928.47
2018-01-02T03:59:58.758Z,928.42
2018-01-02T04:00:27.372Z,928.44
2018-01-02T04:00:55.745Z,928.43
2018-01-02T04:01:24.392Z,928.43
2018-01-02T04:01:53.060Z,928.43
2018-01-02T04:02:21.584Z,928.43
2018-01-02T04:02:50.245Z,928.42
2018-01-02T04:03:18.767Z,928.4
2018-01-02T04:03:47.385Z,928.43
2018-01-02T04:04:16.008Z,928.42
2018-01-02T04:04:44.526Z,928.43
2018-01-02T04:05:13.160Z,928.41
2018-01-02T04:05:41.765Z,928.42
2018-01-02T04:06:10.331Z,928.42
2018-01-02T04:06:38.902Z,928.44
2018-01-02T04:07:07.527Z,928.41
2018-01-02T04:07:36.055Z,928.44
2018-01-02T04:08:04.546Z,928.4
2018-01-02T04:08:32.839Z,928.43
2018-01-02T04:09:01.253Z,928.39
2018-01-02T04:09:29.814Z,928.42
2018-01-02T04:09:58.325Z,928.38
2018-01-02T04:10:26.963Z,928.38
2018-01-02T04:10:55.488Z,928.4
2018-01-02T04:11:24.114Z,928.39
2018-01-02T04:11:52.687Z,928.36
2018-01-02T04:12:21.276Z,928.39
2018-01-02T04:12:49.848Z,928.35
2018-01-02T04:13:18.344Z,928.33
2018-01-02T04:13:46.807Z,928.34
2018-01-02T04:14:15.401Z,928.33
2018-01-02T04:14:44.038Z,928.31
2018-01-02T04:15:12.536Z,928.28
2018-01-02T04:15:41.025Z,928.3
2018-01-02T04:16:09.608Z,928.26
2018-01-02T04:16:38.146Z,928.27
2018-01-02T04:17:06.691Z,928.27
2018-01-02T04:17:34.873Z,928.29
2018-01-02T04:18:03.405Z,928.29
2018-01-02T04:18:32.021Z,928.27
2018-01-02T04:19:00.662Z,928.31
2018-01-02T04:19:29.251Z,928.29
2018-01-02T04:19:57.664Z,928.3
2018-01-02T04:20:26.084Z,928.27
2018-01-02T04:20:54.711Z,928.31
2018-01-02T04:21:23.126Z,928.3
2018-01-02T04:21:51.637Z,928.28
2018-01-02T04:22:20.252Z,928.26
2018-01-02T04:22:48.778Z,928.25
2018-01-02T04:23:17.330Z,928.25
2018-01-02T04:23:45.935Z,928.26
2018-01-02T04:24:14.607Z,928.24
2018-01-02T04:24:43.106Z,928.23
2018-01-02T04:25:11.589Z,928.23
2018-01-02T04:25:39.973Z,928.2
2018-01-02T04:26:08.511Z,928.24
2018-01-02T04:26:37.027Z,928.22
2018-01-02T04:27:05.531Z,928.2
2018-01-02T04:27:34.060Z,928.2
2018-01-02T04:28:02.584Z,928.23
2018-01-02T04:28:31.144Z,928.24
2018-01-02T04:28:59.927Z,928.21
2018-01-02T04:29:28.448Z,928.25
2018-01-02T04:29:57.085Z,928.26
2018-01-02T04:30:25.680Z,928.25
2018-01-02T04:30:54.323Z,928.25
2018-01-02T04:31:22.925Z,928.25
2018-01-02T04:31:51.476Z,928.23
2018-01-02T04:32:20.088Z,928.24
2018-01-02T04:32:48.618Z,928.2
2018-01-02T04:33:17.179Z,928.23
2018-01-02T04:33:45.712Z,928.22
2018-01-02T04:34:14.366Z,928.17
2018-01-02T04:34:42.958Z,928.18
2018-01-02T04:35:11.439Z,928.15
2018-01-02T04:35:39.973Z,928.16
2018-01-02T04:36:08.610Z,928.15
2018-01-02T04:36:36.993Z,928.14
2018-01-02T04:37:05.404Z,928.08
2018-01-02T04:37:34.064Z,928.09
2018-01-02T04:38:02.648Z,928.08
2018-01-02T04:38:31.071Z,928.06
2018-01-02T04:38:59.661Z,928.04
2018-01-02T04:39:28.071Z,928.01
2018-01-02T04:39:56.565Z,927.99
2018-01-02T04:40:25.020Z,928.04
2018-01-02T04:40:53.421Z,928
2018-01-02T04:41:22.034Z,927.97
2018-01-02T04:41:50.560Z,927.97
2018-01-02T04:42:19.193Z,927.95
2018-01-02T04:42:47.703Z,927.94
2018-01-02T04:43:16.176Z,927.96
2018-01-02T04:43:44.622Z,927.92
2018-01-02T04:44:13.335Z,927.94
2018-01-02T04:44:41.945Z,927.92
2018-01-02T04:45:10.465Z,927.93
2018-01-02T04:45:38.935Z,927.94
2018-01-02T04:46:07.530Z,927.96
2018-01-02T04:46:35.962Z,927.92
2018-01-02T04:47:04.452Z,927.93
2018-01-02T04:47:32.894Z,927.93
2018-01-02T04:48:01.401Z,927.96
2018-01-02T04:48:30.049Z,927.94
2018-01-02T04:48:58.539Z,927.97
2018-01-02T04:49:26.965Z,927.95
2018-01-02T04:49:55.503Z,927.97
2018-01-02T04:50:24.114Z,927.96
2018-01-02T04:50:52.578Z,927.98
2018-01-02T04:51:21.177Z,927.95
2018-01-02T04:51:49.551Z,927.95
2018-01-02T04:52:18.065Z,927.95
2018-01-02T04:52:46.469Z,927.93
2018-01-02T04:53:15.011Z,927.89
2018-01-02T04:53:43.369Z,927.91
2018-01-02T04:54:12.098Z,927.92
2018-01-02T04:54:41.320Z,927.93
2018-01-02T04:55:09.905Z,927.91
2018-01-02T04:55:38.416Z,927.91
2018-01-02T04:56:07.004Z,927.93
2018-01-02T04:56:35.401Z,927.91
2018-01-02T04:57:03.982Z,927.9
2018-01-02T04:57:32.360Z,927.9
2018-01-02T04:58:00.917Z,927.93
2018-01-02T04:58:29.409Z,927.91
2018-01-02T04:58:57.821Z,927.92
2018-01-02T04:59:26.838Z,927.9
2018-01-02T04:59:55.380Z,927.9
2018-01-02T05:00:23.885Z,927.9
2018-01-02T05:00:52.443Z,927.91
2018-01-02T05:01:20.968Z,927.88
2018-01-02T05:01:49.514Z,927.89
2018-01-02T05:02:18.152Z,927.89
2018-01-02T05:02:46.562Z,927.86
2018-01-02T05:03:15.182Z,927.86
2018-01-02T05:03:43.711Z,927.83
2018-01-02T05:04:12.286Z,927.84
2018-01-02T05:04:40.760Z,927.84
2018-01-02T05:05:09.367Z,927.8
2018-01-02T05:05:37.905Z,927.83
2018-01-02T05:06:06.389Z,927.83
2018-01-02T05:06:34.900Z,927.79
2018-01-02T05:07:03.415Z,927.8
2018-01-02T05:07:31.959Z,927.79
2018-01-02T05:08:00.391Z,927.8
2018-01-02T05:08:28.789Z,927.81
2018-01-02T05:08:57.294Z,927.78
2018-01-02T05:09:25.797Z,927.79
2018-01-02T05:09:54.265Z,927.79
2018-01-02T05:10:22.888Z,927.76
2018-01-02T05:10:51.311Z,927.76
2018-01-02T05:11:19.816Z,927.75
2018-01-02T05:11:48.462Z,927.74
2018-01-02T05:12:16.998Z,927.72
2018-01-02T05:12:45.583Z,927.75
2018-01-02T05:13:14.222Z,927.72
2018-01-02T05:13:42.770Z,927.78
2018-01-02T05:14:11.275Z,927.73
2018-01-02T05:14:39.894Z,927.71
2018-01-02T05:15:08.416Z,927.73
2018-01-02T05:15:36.835Z,927.74
2018-01-02T05:16:05.432Z,927.74
2018-01-02T05:16:33.887Z,927.77
2018-01-02T05:17:02.186Z,927.72
2018-01-02T05:17:30.811Z,927.73
2018-01-02T05:17:59.441Z,927.76
2018-01-02T05:18:28.000Z,927.77
2018-01-02T05:18:56.504Z,927.73
2018-01-02T05:19:25.243Z,927.74
2018-01-02T05:19:53.833Z,927.77
2018-01-02T05:20:22.301Z,927.77
2018-01-02T05:20:50.601Z,927.76
2018-01-02T05:21:19.087Z,927.76
2018-01-02T05:21:47.571Z,927.77
2018-01-02T05:22:16.147Z,927.77
2018-01-02T05:22:44.687Z,927.78
2018-01-02T05:23:13.002Z,927.78
2018-01-02T05:23:41.641Z,927.79
2018-01-02T05:24:10.245Z,927.81
2018-01-02T05:24:38.650Z,927.84
2018-01-02T05:25:07.220Z,927.81
2018-01-02T05:25:35.716Z,927.8
2018-01-02T05:26:04.216Z,927.84
2018-01-02T05:26:32.700Z,927.77
2018-01-02T05:27:01.252Z,927.84
2018-01-02T05:27:29.725Z,927.85
2018-01-02T05:27:58.250Z,927.86
2018-01-02T05:28:26.777Z,927.85
2018-01-02T05:28:55.304Z,927.87
2018-01-02T05:29:24.053Z,927.86
2018-01-02T05:29:52.564Z,927.85
2018-01-02T05:30:21.181Z,927.87
2018-01-02T05:30:49.810Z,927.86
2018-01-02T05:31:18.376Z,927.9
2018-01-02T05:31:46.778Z,927.91
2018-01-02T05:32:15.324Z,927.89
2018-01-02T05:32:43.868Z,927.9
2018-01-02T05:33:12.489Z,927.89
2018-01-02T05:33:41.133Z,927.88
2018-01-02T05:34:09.547Z,927.9
2018-01-02T05:34:38.010Z,927.9
2018-01-02T05:35:06.335Z,927.87
2018-01-02T05:35:34.944Z,927.92
2018-01-02T05:36:03.564Z,927.9
2018-01-02T05:36:32.145Z,927.88
2018-01-02T05:37:00.682Z,927.9
2018-01-02T05:37:29.086Z,927.86
2018-01-02T05:37:57.615Z,927.85
2018-01-02T05:38:25.990Z,927.85
2018-01-02T05:38:54.474Z,927.81
2018-01-02T05:39:23.068Z,927.8
2018-01-02T05:39:51.491Z,927.85
2018-01-02T05:40:20.042Z,927.78
2018-01-02T05:40:48.402Z,927.82
2018-01-02T05:41:16.958Z,927.81
2018-01-02T05:41:45.464Z,927.8
2018-01-02T05:42:13.838Z,927.83
2018-01-02T05:42:42.277Z,927.81
2018-01-02T05:43:10.849Z,927.84
2018-01-02T05:43:39.487Z,927.81
2018-01-02T05:44:08.084Z,927.83
2018-01-02T05:44:36.782Z,927.8
2018-01-02T05:45:05.245Z,927.83
2018-01-02T05:45:33.695Z,927.8
2018-01-02T05:46:02.304Z,927.79
2018-01-02T05:46:30.915Z,927.79
2018-01-02T05:46:59.274Z,927.79
2018-01-02T05:47:27.872Z,927.74
2018-01-02T05:47:56.258Z,927.73
2018-01-02T05:48:24.785Z,927.72
2018-01-02T05:48:53.359Z,927.72
2018-01-02T05:49:21.911Z,927.76
2018-01-02T05:49:50.452Z,927.75
2018-01-02T05:50:18.849Z,927.76
2018-01-02T05:50:47.330Z,927.81
2018-01-02T05:51:15.962Z,927.82
2018-01-02T05:51:44.590Z,927.78
2018-01-02T05:52:12.962Z,927.83
2018-01-02T05:52:41.350Z,927.75
2018-01-02T05:53:09.820Z,927.85
2018-01-02T05:53:38.456Z,927.78
2018-01-02T05:54:06.949Z,927.8
2018-01-02T05:54:35.370Z,927.77
2018-01-02T05:55:03.790Z,927.78
2018-01-02T05:55:32.415Z,927.79
2018-01-02T05:56:01.042Z,927.76
2018-01-02T05:56:29.614Z,927.78
2018-01-02T05:56:58.212Z,927.77
2018-01-02T05:57:26.822Z,927.76